sensor_id;sensor_type;location;lat;lon;timestamp;pressure;altitude;pressure_sealevel;temperature;humidity
49825;BME280;35714;55.708;37.478;2022-09-01T00:01:27;98723.88;;;11.16;65.02
49825;BME280;35714;55.708;37.478;2022-09-01T00:03:56;98725.47;;;11.12;64.82
49825;BME280;35714;55.708;37.478;2022-09-01T00:06:29;98723.75;;;11.06;65.18
49825;BME280;35714;55.708;37.478;2022-09-01T00:08:59;98726.97;;;11.03;65.12
49825;BME280;35714;55.708;37.478;2022-09-01T00:11:26;98720.97;;;10.96;65.42
49825;BME280;35714;55.708;37.478;2022-09-01T00:13:54;98720.31;;;10.89;65.50
49825;BME280;35714;55.708;37.478;2022-09-01T00:16:20;98721.38;;;10.88;65.63
49825;BME280;35714;55.708;37.478;2022-09-01T00:18:51;98720.06;;;10.90;65.70
49825;BME280;35714;55.708;37.478;2022-09-01T00:21:22;98733.88;;;10.89;65.70
49825;BME280;35714;55.708;37.478;2022-09-01T00:23:48;98728.97;;;10.86;66.00
49825;BME280;35714;55.708;37.478;2022-09-01T00:26:14;98725.06;;;10.76;65.96
49825;BME280;35714;55.708;37.478;2022-09-01T00:28:40;98715.22;;;10.70;66.29
49825;BME280;35714;55.708;37.478;2022-09-01T00:31:07;98726.84;;;10.65;66.25
49825;BME280;35714;55.708;37.478;2022-09-01T00:33:36;98729.22;;;10.62;66.69
49825;BME280;35714;55.708;37.478;2022-09-01T00:36:03;98728.09;;;10.58;66.58
49825;BME280;35714;55.708;37.478;2022-09-01T00:38:30;98724.31;;;10.59;66.83
49825;BME280;35714;55.708;37.478;2022-09-01T00:40:56;98727.09;;;10.64;66.76
49825;BME280;35714;55.708;37.478;2022-09-01T00:43:38;98742.34;;;10.70;66.55
49825;BME280;35714;55.708;37.478;2022-09-01T00:46:07;98729.88;;;10.69;66.47
49825;BME280;35714;55.708;37.478;2022-09-01T00:48:34;98726.56;;;10.67;66.38
49825;BME280;35714;55.708;37.478;2022-09-01T00:51:00;98727.22;;;10.74;66.35
49825;BME280;35714;55.708;37.478;2022-09-01T00:53:27;98732.44;;;10.81;65.69
49825;BME280;35714;55.708;37.478;2022-09-01T00:55:53;98721.28;;;10.77;65.58
49825;BME280;35714;55.708;37.478;2022-09-01T00:58:19;98740.84;;;10.79;65.78
49825;BME280;35714;55.708;37.478;2022-09-01T01:00:47;98738.41;;;10.83;65.48
49825;BME280;35714;55.708;37.478;2022-09-01T01:03:14;98742.78;;;10.84;65.21
49825;BME280;35714;55.708;37.478;2022-09-01T01:05:43;98745.78;;;10.88;64.82
49825;BME280;35714;55.708;37.478;2022-09-01T01:08:13;98736.59;;;10.89;64.57
49825;BME280;35714;55.708;37.478;2022-09-01T01:10:42;98731.88;;;10.79;64.71
49825;BME280;35714;55.708;37.478;2022-09-01T01:13:11;98740.72;;;10.69;65.06
49825;BME280;35714;55.708;37.478;2022-09-01T01:15:39;98730.03;;;10.62;65.08
49825;BME280;35714;55.708;37.478;2022-09-01T01:18:10;98732.50;;;10.64;65.20
49825;BME280;35714;55.708;37.478;2022-09-01T01:20:36;98723.50;;;10.58;65.41
49825;BME280;35714;55.708;37.478;2022-09-01T01:25:56;98719.34;;;10.51;65.50
49825;BME280;35714;55.708;37.478;2022-09-01T01:28:28;98737.66;;;10.43;65.64
49825;BME280;35714;55.708;37.478;2022-09-01T01:33:33;98723.75;;;10.35;66.04
49825;BME280;35714;55.708;37.478;2022-09-01T01:36:06;98711.97;;;10.29;66.09
49825;BME280;35714;55.708;37.478;2022-09-01T01:38:34;98716.84;;;10.27;66.05
49825;BME280;35714;55.708;37.478;2022-09-01T01:41:01;98716.19;;;10.20;66.20
49825;BME280;35714;55.708;37.478;2022-09-01T01:43:30;98708.25;;;10.13;66.48
49825;BME280;35714;55.708;37.478;2022-09-01T01:45:57;98714.91;;;10.05;66.48
49825;BME280;35714;55.708;37.478;2022-09-01T01:48:31;98715.66;;;10.01;66.40
49825;BME280;35714;55.708;37.478;2022-09-01T01:51:00;98711.81;;;9.97;66.93
49825;BME280;35714;55.708;37.478;2022-09-01T01:53:27;98716.88;;;9.93;67.02
49825;BME280;35714;55.708;37.478;2022-09-01T01:55:53;98723.16;;;9.93;67.06
49825;BME280;35714;55.708;37.478;2022-09-01T01:58:21;98716.50;;;9.84;67.36
49825;BME280;35714;55.708;37.478;2022-09-01T02:00:51;98723.28;;;9.87;67.35
49825;BME280;35714;55.708;37.478;2022-09-01T02:03:22;98725.50;;;9.90;67.01
49825;BME280;35714;55.708;37.478;2022-09-01T02:05:52;98716.56;;;9.89;66.69
49825;BME280;35714;55.708;37.478;2022-09-01T02:08:21;98714.78;;;9.78;66.88
49825;BME280;35714;55.708;37.478;2022-09-01T02:10:53;98720.69;;;9.75;67.23
49825;BME280;35714;55.708;37.478;2022-09-01T02:13:21;98717.16;;;9.74;66.86
49825;BME280;35714;55.708;37.478;2022-09-01T02:15:52;98719.78;;;9.69;67.02
49825;BME280;35714;55.708;37.478;2022-09-01T02:18:24;98725.75;;;9.71;66.75
49825;BME280;35714;55.708;37.478;2022-09-01T02:20:57;98730.28;;;9.66;67.13
49825;BME280;35714;55.708;37.478;2022-09-01T02:23:26;98732.19;;;9.65;67.12
49825;BME280;35714;55.708;37.478;2022-09-01T02:25:55;98725.13;;;9.64;67.26
49825;BME280;35714;55.708;37.478;2022-09-01T02:28:21;98718.72;;;9.70;66.99
49825;BME280;35714;55.708;37.478;2022-09-01T02:30:49;98727.09;;;9.69;67.16
49825;BME280;35714;55.708;37.478;2022-09-01T02:33:18;98723.47;;;9.63;67.08
49825;BME280;35714;55.708;37.478;2022-09-01T02:36:08;98726.84;;;9.70;67.14
49825;BME280;35714;55.708;37.478;2022-09-01T02:38:34;98723.06;;;9.71;67.12
49825;BME280;35714;55.708;37.478;2022-09-01T02:41:01;98723.56;;;9.68;67.30
49825;BME280;35714;55.708;37.478;2022-09-01T02:43:29;98730.03;;;9.67;67.13
49825;BME280;35714;55.708;37.478;2022-09-01T02:45:59;98729.72;;;9.64;67.40
49825;BME280;35714;55.708;37.478;2022-09-01T02:48:37;98722.16;;;9.66;67.35
49825;BME280;35714;55.708;37.478;2022-09-01T02:51:05;98731.84;;;9.62;67.24
49825;BME280;35714;55.708;37.478;2022-09-01T02:53:32;98729.38;;;9.60;67.30
49825;BME280;35714;55.708;37.478;2022-09-01T02:56:03;98726.66;;;9.60;67.19
49825;BME280;35714;55.708;37.478;2022-09-01T02:58:35;98724.81;;;9.61;67.25
49825;BME280;35714;55.708;37.478;2022-09-01T03:03:52;98728.88;;;9.63;67.08
49825;BME280;35714;55.708;37.478;2022-09-01T03:06:19;98723.34;;;9.70;67.16
49825;BME280;35714;55.708;37.478;2022-09-01T03:08:53;98731.09;;;9.83;66.72
49825;BME280;35714;55.708;37.478;2022-09-01T03:11:20;98723.06;;;9.88;66.69
49825;BME280;35714;55.708;37.478;2022-09-01T03:13:49;98720.19;;;9.95;66.48
49825;BME280;35714;55.708;37.478;2022-09-01T03:16:16;98719.50;;;10.05;66.22
49825;BME280;35714;55.708;37.478;2022-09-01T03:18:42;98718.84;;;10.15;66.06
49825;BME280;35714;55.708;37.478;2022-09-01T03:21:09;98711.28;;;10.17;65.60
49825;BME280;35714;55.708;37.478;2022-09-01T03:23:40;98722.19;;;10.22;65.36
49825;BME280;35714;55.708;37.478;2022-09-01T03:26:06;98717.34;;;10.24;64.62
49825;BME280;35714;55.708;37.478;2022-09-01T03:28:32;98722.50;;;10.25;64.34
49825;BME280;35714;55.708;37.478;2022-09-01T03:30:58;98721.75;;;10.30;64.07
49825;BME280;35714;55.708;37.478;2022-09-01T03:33:26;98721.34;;;10.38;63.36
49825;BME280;35714;55.708;37.478;2022-09-01T03:35:55;98725.53;;;10.29;63.22
49825;BME280;35714;55.708;37.478;2022-09-01T03:38:22;98727.69;;;10.27;63.46
49825;BME280;35714;55.708;37.478;2022-09-01T03:40:58;98739.50;;;10.21;63.34
49825;BME280;35714;55.708;37.478;2022-09-01T03:43:27;98724.41;;;10.25;63.19
49825;BME280;35714;55.708;37.478;2022-09-01T03:45:55;98727.44;;;10.28;63.15
49825;BME280;35714;55.708;37.478;2022-09-01T03:48:27;98731.13;;;10.39;62.32
49825;BME280;35714;55.708;37.478;2022-09-01T03:50:56;98733.72;;;10.51;61.78
49825;BME280;35714;55.708;37.478;2022-09-01T03:53:29;98741.59;;;10.53;61.80
49825;BME280;35714;55.708;37.478;2022-09-01T03:55:56;98725.63;;;10.56;61.19
49825;BME280;35714;55.708;37.478;2022-09-01T03:58:25;98730.25;;;10.56;61.43
49825;BME280;35714;55.708;37.478;2022-09-01T04:00:53;98723.44;;;10.53;61.30
49825;BME280;35714;55.708;37.478;2022-09-01T04:03:23;98729.69;;;10.54;61.29
49825;BME280;35714;55.708;37.478;2022-09-01T04:05:51;98730.03;;;10.62;60.74
49825;BME280;35714;55.708;37.478;2022-09-01T04:08:18;98726.47;;;10.57;60.80
49825;BME280;35714;55.708;37.478;2022-09-01T04:10:52;98723.44;;;10.75;59.90
49825;BME280;35714;55.708;37.478;2022-09-01T04:13:24;98722.31;;;10.71;59.79
49825;BME280;35714;55.708;37.478;2022-09-01T04:15:52;98736.91;;;10.70;59.98
49825;BME280;35714;55.708;37.478;2022-09-01T04:18:19;98727.78;;;10.76;59.25
49825;BME280;35714;55.708;37.478;2022-09-01T04:20:49;98741.97;;;10.83;58.67
49825;BME280;35714;55.708;37.478;2022-09-01T04:23:21;98724.56;;;10.79;59.02
49825;BME280;35714;55.708;37.478;2022-09-01T04:26:05;98735.91;;;10.76;59.18
49825;BME280;35714;55.708;37.478;2022-09-01T04:31:05;98737.38;;;10.62;60.21
49825;BME280;35714;55.708;37.478;2022-09-01T04:33:36;98724.63;;;10.62;60.10
49825;BME280;35714;55.708;37.478;2022-09-01T04:36:14;98732.34;;;10.71;59.91
49825;BME280;35714;55.708;37.478;2022-09-01T04:38:45;98730.94;;;10.68;60.26
49825;BME280;35714;55.708;37.478;2022-09-01T04:41:11;98714.72;;;10.73;59.97
49825;BME280;35714;55.708;37.478;2022-09-01T04:43:43;98725.25;;;10.92;58.68
49825;BME280;35714;55.708;37.478;2022-09-01T04:46:15;98720.50;;;11.04;57.54
49825;BME280;35714;55.708;37.478;2022-09-01T04:48:44;98725.63;;;11.00;57.74
49825;BME280;35714;55.708;37.478;2022-09-01T04:51:13;98733.50;;;11.02;57.63
49825;BME280;35714;55.708;37.478;2022-09-01T04:53:54;98727.50;;;11.00;57.54
49825;BME280;35714;55.708;37.478;2022-09-01T04:56:23;98721.63;;;11.08;56.72
49825;BME280;35714;55.708;37.478;2022-09-01T04:59:18;98724.94;;;11.15;56.40
49825;BME280;35714;55.708;37.478;2022-09-01T05:01:49;98727.50;;;11.00;56.68
49825;BME280;35714;55.708;37.478;2022-09-01T05:04:20;98729.69;;;11.03;56.71
49825;BME280;35714;55.708;37.478;2022-09-01T05:06:50;98727.66;;;11.15;56.04
49825;BME280;35714;55.708;37.478;2022-09-01T05:09:19;98733.38;;;11.19;56.06
49825;BME280;35714;55.708;37.478;2022-09-01T05:12:02;98743.44;;;11.18;56.53
49825;BME280;35714;55.708;37.478;2022-09-01T05:14:37;98737.78;;;11.25;56.42
49825;BME280;35714;55.708;37.478;2022-09-01T05:17:08;98737.91;;;11.35;56.13
49825;BME280;35714;55.708;37.478;2022-09-01T05:19:37;98738.19;;;11.39;55.98
49825;BME280;35714;55.708;37.478;2022-09-01T05:22:03;98738.19;;;11.39;56.04
49825;BME280;35714;55.708;37.478;2022-09-01T05:24:31;98733.59;;;11.40;55.85
49825;BME280;35714;55.708;37.478;2022-09-01T05:27:06;98745.34;;;11.50;55.27
49825;BME280;35714;55.708;37.478;2022-09-01T05:29:36;98745.97;;;11.58;54.62
49825;BME280;35714;55.708;37.478;2022-09-01T05:32:05;98741.13;;;11.65;53.88
49825;BME280;35714;55.708;37.478;2022-09-01T05:34:36;98734.66;;;11.71;53.35
49825;BME280;35714;55.708;37.478;2022-09-01T05:37:06;98743.41;;;11.73;53.60
49825;BME280;35714;55.708;37.478;2022-09-01T05:39:36;98747.69;;;11.69;53.93
49825;BME280;35714;55.708;37.478;2022-09-01T05:42:04;98733.69;;;11.82;53.42
49825;BME280;35714;55.708;37.478;2022-09-01T05:44:39;98745.13;;;11.89;52.96
49825;BME280;35714;55.708;37.478;2022-09-01T05:47:10;98756.50;;;11.81;52.15
49825;BME280;35714;55.708;37.478;2022-09-01T05:49:37;98732.06;;;11.86;51.81
49825;BME280;35714;55.708;37.478;2022-09-01T05:52:04;98744.59;;;11.87;52.09
49825;BME280;35714;55.708;37.478;2022-09-01T05:54:30;98765.19;;;11.83;51.73
49825;BME280;35714;55.708;37.478;2022-09-01T05:56:57;98740.88;;;11.66;52.47
49825;BME280;35714;55.708;37.478;2022-09-01T05:59:26;98746.03;;;11.68;51.98
49825;BME280;35714;55.708;37.478;2022-09-01T06:02:03;98753.06;;;11.59;52.30
49825;BME280;35714;55.708;37.478;2022-09-01T06:04:34;98749.84;;;11.67;52.11
49825;BME280;35714;55.708;37.478;2022-09-01T06:07:02;98748.31;;;11.76;51.52
49825;BME280;35714;55.708;37.478;2022-09-01T06:09:38;98743.47;;;11.83;50.79
49825;BME280;35714;55.708;37.478;2022-09-01T06:12:05;98740.81;;;11.88;50.13
49825;BME280;35714;55.708;37.478;2022-09-01T06:14:31;98731.66;;;12.00;49.42
49825;BME280;35714;55.708;37.478;2022-09-01T06:16:56;98734.41;;;12.05;49.48
49825;BME280;35714;55.708;37.478;2022-09-01T06:19:23;98732.88;;;12.19;48.45
49825;BME280;35714;55.708;37.478;2022-09-01T06:21:52;98746.97;;;12.16;47.82
49825;BME280;35714;55.708;37.478;2022-09-01T06:24:18;98730.63;;;12.06;47.72
49825;BME280;35714;55.708;37.478;2022-09-01T06:26:44;98735.75;;;12.02;48.49
49825;BME280;35714;55.708;37.478;2022-09-01T06:29:10;98731.72;;;12.10;48.53
49825;BME280;35714;55.708;37.478;2022-09-01T06:31:44;98729.88;;;12.16;48.18
49825;BME280;35714;55.708;37.478;2022-09-01T06:34:16;98734.50;;;12.20;48.33
49825;BME280;35714;55.708;37.478;2022-09-01T06:36:45;98734.44;;;12.10;48.39
49825;BME280;35714;55.708;37.478;2022-09-01T06:39:13;98748.03;;;12.10;48.77
49825;BME280;35714;55.708;37.478;2022-09-01T06:41:49;98744.25;;;12.11;48.97
49825;BME280;35714;55.708;37.478;2022-09-01T06:44:20;98741.25;;;12.13;49.39
49825;BME280;35714;55.708;37.478;2022-09-01T06:46:58;98739.34;;;12.13;49.48
49825;BME280;35714;55.708;37.478;2022-09-01T06:49:25;98753.19;;;12.06;49.81
49825;BME280;35714;55.708;37.478;2022-09-01T06:51:59;98745.53;;;12.03;50.12
49825;BME280;35714;55.708;37.478;2022-09-01T06:54:26;98754.50;;;12.04;50.43
49825;BME280;35714;55.708;37.478;2022-09-01T06:56:54;98747.47;;;12.08;50.72
49825;BME280;35714;55.708;37.478;2022-09-01T06:59:22;98757.72;;;11.96;50.65
49825;BME280;35714;55.708;37.478;2022-09-01T07:01:50;98757.19;;;11.99;50.95
49825;BME280;35714;55.708;37.478;2022-09-01T07:04:27;98748.50;;;11.97;50.90
49825;BME280;35714;55.708;37.478;2022-09-01T07:06:59;98755.66;;;12.13;50.40
49825;BME280;35714;55.708;37.478;2022-09-01T07:09:47;98759.34;;;11.97;50.87
49825;BME280;35714;55.708;37.478;2022-09-01T07:12:19;98753.41;;;12.00;50.49
49825;BME280;35714;55.708;37.478;2022-09-01T07:14:48;98756.06;;;11.95;50.84
49825;BME280;35714;55.708;37.478;2022-09-01T07:17:14;98762.53;;;11.88;50.94
49825;BME280;35714;55.708;37.478;2022-09-01T07:19:41;98756.59;;;11.91;50.85
49825;BME280;35714;55.708;37.478;2022-09-01T07:22:20;98761.50;;;11.95;51.01
49825;BME280;35714;55.708;37.478;2022-09-01T07:24:48;98764.22;;;11.95;50.94
49825;BME280;35714;55.708;37.478;2022-09-01T07:27:26;98750.47;;;12.12;50.51
49825;BME280;35714;55.708;37.478;2022-09-01T07:29:53;98752.66;;;12.09;50.88
49825;BME280;35714;55.708;37.478;2022-09-01T07:32:22;98767.09;;;12.15;50.75
49825;BME280;35714;55.708;37.478;2022-09-01T07:34:48;98765.47;;;12.14;51.00
49825;BME280;35714;55.708;37.478;2022-09-01T07:37:15;98760.00;;;12.09;51.23
49825;BME280;35714;55.708;37.478;2022-09-01T07:39:43;98766.00;;;12.16;51.52
49825;BME280;35714;55.708;37.478;2022-09-01T07:42:37;98767.75;;;12.33;50.94
49825;BME280;35714;55.708;37.478;2022-09-01T07:45:23;98759.09;;;12.41;49.50
49825;BME280;35714;55.708;37.478;2022-09-01T07:47:56;98764.19;;;12.27;49.88
49825;BME280;35714;55.708;37.478;2022-09-01T07:50:33;98766.72;;;12.39;49.14
49825;BME280;35714;55.708;37.478;2022-09-01T07:53:02;98770.50;;;12.38;49.25
49825;BME280;35714;55.708;37.478;2022-09-01T07:55:28;98771.03;;;12.35;49.30
49825;BME280;35714;55.708;37.478;2022-09-01T07:57:54;98769.19;;;12.45;49.20
49825;BME280;35714;55.708;37.478;2022-09-01T08:00:20;98764.56;;;12.51;49.43
49825;BME280;35714;55.708;37.478;2022-09-01T08:02:51;98775.28;;;12.68;48.98
49825;BME280;35714;55.708;37.478;2022-09-01T08:05:18;98777.81;;;12.90;47.53
49825;BME280;35714;55.708;37.478;2022-09-01T08:07:50;98770.25;;;13.03;46.68
49825;BME280;35714;55.708;37.478;2022-09-01T08:10:16;98764.25;;;12.95;46.41
49825;BME280;35714;55.708;37.478;2022-09-01T08:12:42;98757.16;;;12.94;46.22
49825;BME280;35714;55.708;37.478;2022-09-01T08:15:09;98762.06;;;12.92;46.15
49825;BME280;35714;55.708;37.478;2022-09-01T08:17:37;98771.84;;;12.93;45.98
49825;BME280;35714;55.708;37.478;2022-09-01T08:20:10;98767.56;;;13.18;44.78
49825;BME280;35714;55.708;37.478;2022-09-01T08:22:58;98773.47;;;12.94;45.30
49825;BME280;35714;55.708;37.478;2022-09-01T08:25:42;98766.44;;;13.04;45.23
49825;BME280;35714;55.708;37.478;2022-09-01T08:28:08;98765.34;;;12.99;45.46
49825;BME280;35714;55.708;37.478;2022-09-01T08:30:37;98768.63;;;13.02;45.23
49825;BME280;35714;55.708;37.478;2022-09-01T08:33:03;98768.31;;;13.03;45.30
49825;BME280;35714;55.708;37.478;2022-09-01T08:35:30;98777.34;;;13.04;45.03
49825;BME280;35714;55.708;37.478;2022-09-01T08:37:57;98776.19;;;12.89;45.79
49825;BME280;35714;55.708;37.478;2022-09-01T08:40:25;98782.19;;;12.91;45.46
49825;BME280;35714;55.708;37.478;2022-09-01T08:48:19;98773.56;;;13.15;44.42
49825;BME280;35714;55.708;37.478;2022-09-01T08:50:50;98786.03;;;13.06;44.62
49825;BME280;35714;55.708;37.478;2022-09-01T08:53:37;98770.78;;;13.05;44.82
49825;BME280;35714;55.708;37.478;2022-09-01T08:56:08;98784.97;;;13.02;44.94
49825;BME280;35714;55.708;37.478;2022-09-01T08:58:35;98782.78;;;13.04;45.33
49825;BME280;35714;55.708;37.478;2022-09-01T09:06:32;98775.56;;;13.50;44.14
49825;BME280;35714;55.708;37.478;2022-09-01T09:09:04;98793.81;;;13.40;44.36
49825;BME280;35714;55.708;37.478;2022-09-01T09:16:57;98803.03;;;13.33;44.39
49825;BME280;35714;55.708;37.478;2022-09-01T09:19:35;98801.34;;;13.22;44.86
49825;BME280;35714;55.708;37.478;2022-09-01T09:22:04;98817.63;;;13.12;45.00
49825;BME280;35714;55.708;37.478;2022-09-01T09:24:39;98798.56;;;13.07;45.07
49825;BME280;35714;55.708;37.478;2022-09-01T09:27:27;98801.56;;;13.15;44.92
49825;BME280;35714;55.708;37.478;2022-09-01T09:29:57;98811.13;;;13.18;45.01
49825;BME280;35714;55.708;37.478;2022-09-01T09:32:40;98809.03;;;13.35;44.60
49825;BME280;35714;55.708;37.478;2022-09-01T09:35:19;98813.41;;;13.47;44.35
49825;BME280;35714;55.708;37.478;2022-09-01T09:37:45;98817.25;;;13.46;44.18
49825;BME280;35714;55.708;37.478;2022-09-01T09:40:24;98809.34;;;13.49;44.15
49825;BME280;35714;55.708;37.478;2022-09-01T09:45:31;98815.63;;;13.55;43.47
49825;BME280;35714;55.708;37.478;2022-09-01T09:48:05;98824.59;;;13.56;42.94
49825;BME280;35714;55.708;37.478;2022-09-01T09:50:38;98818.88;;;13.57;42.76
49825;BME280;35714;55.708;37.478;2022-09-01T09:56:16;98817.78;;;13.53;42.76
49825;BME280;35714;55.708;37.478;2022-09-01T09:58:44;98827.28;;;13.40;42.99
49825;BME280;35714;55.708;37.478;2022-09-01T10:03:56;98825.94;;;13.58;42.85
49825;BME280;35714;55.708;37.478;2022-09-01T10:06:39;98837.16;;;13.62;43.14
49825;BME280;35714;55.708;37.478;2022-09-01T10:11:54;98829.81;;;13.98;42.37
49825;BME280;35714;55.708;37.478;2022-09-01T10:14:46;98840.19;;;14.22;41.48
49825;BME280;35714;55.708;37.478;2022-09-01T10:17:20;98840.75;;;14.29;41.05
49825;BME280;35714;55.708;37.478;2022-09-01T10:19:53;98832.81;;;14.17;41.13
49825;BME280;35714;55.708;37.478;2022-09-01T10:22:21;98838.56;;;14.11;41.75
49825;BME280;35714;55.708;37.478;2022-09-01T10:24:48;98839.63;;;13.89;42.23
49825;BME280;35714;55.708;37.478;2022-09-01T10:27:23;98849.97;;;13.77;43.03
49825;BME280;35714;55.708;37.478;2022-09-01T10:30:07;98848.88;;;13.73;43.46
49825;BME280;35714;55.708;37.478;2022-09-01T10:32:41;98840.16;;;13.86;42.95
49825;BME280;35714;55.708;37.478;2022-09-01T10:35:13;98836.09;;;13.83;43.18
49825;BME280;35714;55.708;37.478;2022-09-01T10:37:41;98836.38;;;13.92;42.60
49825;BME280;35714;55.708;37.478;2022-09-01T10:45:46;98842.88;;;13.55;43.72
49825;BME280;35714;55.708;37.478;2022-09-01T10:53:46;98868.53;;;13.85;41.92
49825;BME280;35714;55.708;37.478;2022-09-01T10:56:42;98843.72;;;13.81;41.87
49825;BME280;35714;55.708;37.478;2022-09-01T10:59:26;98844.78;;;13.70;42.26
49825;BME280;35714;55.708;37.478;2022-09-01T11:05:08;98847.19;;;13.51;43.46
49825;BME280;35714;55.708;37.478;2022-09-01T11:10:26;98848.31;;;13.65;43.48
49825;BME280;35714;55.708;37.478;2022-09-01T11:15:43;98852.41;;;13.78;42.16
49825;BME280;35714;55.708;37.478;2022-09-01T11:18:32;98846.16;;;13.88;42.36
49825;BME280;35714;55.708;37.478;2022-09-01T11:21:23;98841.28;;;13.95;42.13
49825;BME280;35714;55.708;37.478;2022-09-01T11:23:49;98853.00;;;14.06;41.26
49825;BME280;35714;55.708;37.478;2022-09-01T11:28:57;98837.47;;;14.37;40.28
49825;BME280;35714;55.708;37.478;2022-09-01T11:31:45;98845.09;;;14.35;40.78
49825;BME280;35714;55.708;37.478;2022-09-01T11:49:54;98829.03;;;15.25;38.71
49825;BME280;35714;55.708;37.478;2022-09-01T11:52:24;98834.72;;;15.88;38.36
49825;BME280;35714;55.708;37.478;2022-09-01T11:54:51;98835.31;;;17.03;35.99
49825;BME280;35714;55.708;37.478;2022-09-01T11:57:22;98827.91;;;17.65;34.05
49825;BME280;35714;55.708;37.478;2022-09-01T11:59:49;98825.06;;;17.33;34.61
49825;BME280;35714;55.708;37.478;2022-09-01T12:02:21;98820.69;;;16.83;35.05
49825;BME280;35714;55.708;37.478;2022-09-01T12:04:48;98818.88;;;16.49;36.17
49825;BME280;35714;55.708;37.478;2022-09-01T12:10:33;98815.63;;;16.13;36.47
49825;BME280;35714;55.708;37.478;2022-09-01T12:15:59;98828.22;;;15.79;36.42
49825;BME280;35714;55.708;37.478;2022-09-01T12:18:31;98815.66;;;15.78;36.61
49825;BME280;35714;55.708;37.478;2022-09-01T12:20:59;98809.44;;;15.62;36.12
49825;BME280;35714;55.708;37.478;2022-09-01T12:23:37;98807.50;;;15.68;35.42
49825;BME280;35714;55.708;37.478;2022-09-01T12:26:08;98804.13;;;15.76;35.18
49825;BME280;35714;55.708;37.478;2022-09-01T12:28:34;98806.34;;;15.74;35.56
49825;BME280;35714;55.708;37.478;2022-09-01T12:31:04;98815.47;;;16.04;34.22
49825;BME280;35714;55.708;37.478;2022-09-01T12:33:31;98804.31;;;15.95;34.57
49825;BME280;35714;55.708;37.478;2022-09-01T12:38:50;98798.78;;;15.61;35.10
49825;BME280;35714;55.708;37.478;2022-09-01T12:43:48;98792.25;;;16.31;34.30
49825;BME280;35714;55.708;37.478;2022-09-01T12:46:41;98786.50;;;16.56;33.83
49825;BME280;35714;55.708;37.478;2022-09-01T12:49:20;98786.75;;;16.60;34.16
49825;BME280;35714;55.708;37.478;2022-09-01T12:51:47;98790.38;;;16.55;33.75
49825;BME280;35714;55.708;37.478;2022-09-01T12:54:13;98788.28;;;16.42;34.19
49825;BME280;35714;55.708;37.478;2022-09-01T12:56:39;98792.84;;;16.52;33.86
49825;BME280;35714;55.708;37.478;2022-09-01T12:59:21;98805.88;;;16.89;33.10
49825;BME280;35714;55.708;37.478;2022-09-01T13:01:47;98789.09;;;16.96;32.60
49825;BME280;35714;55.708;37.478;2022-09-01T13:06:48;98798.34;;;16.76;32.60
49825;BME280;35714;55.708;37.478;2022-09-01T13:09:14;98779.75;;;16.49;32.50
49825;BME280;35714;55.708;37.478;2022-09-01T13:11:40;98784.84;;;16.31;33.19
49825;BME280;35714;55.708;37.478;2022-09-01T13:14:13;98781.63;;;15.95;33.55
49825;BME280;35714;55.708;37.478;2022-09-01T13:16:39;98789.38;;;15.82;34.09
49825;BME280;35714;55.708;37.478;2022-09-01T13:19:05;98788.88;;;15.75;34.87
49825;BME280;35714;55.708;37.478;2022-09-01T13:21:32;98793.31;;;15.61;34.63
49825;BME280;35714;55.708;37.478;2022-09-01T13:24:00;98792.31;;;15.46;35.06
49825;BME280;35714;55.708;37.478;2022-09-01T13:26:26;98789.06;;;15.44;35.28
49825;BME280;35714;55.708;37.478;2022-09-01T13:28:56;98780.13;;;15.28;35.81
49825;BME280;35714;55.708;37.478;2022-09-01T13:31:22;98790.00;;;15.24;36.43
49825;BME280;35714;55.708;37.478;2022-09-01T13:33:48;98779.78;;;15.45;35.71
49825;BME280;35714;55.708;37.478;2022-09-01T13:36:14;98776.25;;;15.40;36.05
49825;BME280;35714;55.708;37.478;2022-09-01T13:38:40;98773.66;;;15.59;36.03
49825;BME280;35714;55.708;37.478;2022-09-01T13:41:06;98785.84;;;16.11;35.29
49825;BME280;35714;55.708;37.478;2022-09-01T13:43:36;98776.66;;;17.04;34.25
49825;BME280;35714;55.708;37.478;2022-09-01T13:46:02;98785.06;;;17.50;32.35
49825;BME280;35714;55.708;37.478;2022-09-01T13:48:29;98780.38;;;17.13;32.11
49825;BME280;35714;55.708;37.478;2022-09-01T13:50:56;98774.91;;;16.65;33.26
49825;BME280;35714;55.708;37.478;2022-09-01T13:53:22;98774.38;;;16.38;33.75
49825;BME280;35714;55.708;37.478;2022-09-01T13:55:48;98779.09;;;16.03;34.61
49825;BME280;35714;55.708;37.478;2022-09-01T13:58:14;98772.41;;;15.85;35.09
49825;BME280;35714;55.708;37.478;2022-09-01T14:00:43;98770.38;;;15.62;36.04
49825;BME280;35714;55.708;37.478;2022-09-01T14:03:19;98776.50;;;15.43;36.77
49825;BME280;35714;55.708;37.478;2022-09-01T14:05:47;98780.34;;;15.42;36.89
49825;BME280;35714;55.708;37.478;2022-09-01T14:08:15;98776.53;;;15.38;37.09
49825;BME280;35714;55.708;37.478;2022-09-01T14:10:44;98781.19;;;15.32;37.15
49825;BME280;35714;55.708;37.478;2022-09-01T14:13:12;98778.81;;;15.21;37.75
49825;BME280;35714;55.708;37.478;2022-09-01T14:15:38;98782.19;;;15.02;38.22
49825;BME280;35714;55.708;37.478;2022-09-01T14:18:05;98775.69;;;14.88;38.31
49825;BME280;35714;55.708;37.478;2022-09-01T14:20:37;98774.31;;;14.85;39.50
49825;BME280;35714;55.708;37.478;2022-09-01T14:23:07;98791.63;;;14.65;39.80
49825;BME280;35714;55.708;37.478;2022-09-01T14:25:36;98832.50;;;14.55;41.64
49825;BME280;35714;55.708;37.478;2022-09-01T14:28:03;98837.47;;;13.96;50.24
49825;BME280;35714;55.708;37.478;2022-09-01T14:30:30;98825.13;;;12.84;53.41
49825;BME280;35714;55.708;37.478;2022-09-01T14:32:57;98836.69;;;12.21;56.20
49825;BME280;35714;55.708;37.478;2022-09-01T14:35:24;98840.31;;;11.72;58.08
49825;BME280;35714;55.708;37.478;2022-09-01T14:37:52;98841.00;;;11.58;59.52